Terminal Aerodrome Forecast
Issued by NWS Upton, NY

Home | Current Version | Previous Version | Text Only | Print | Product List | Glossary On
Versions: 1 2 3 4 5 6 7 8 9 10 11 12 13 14 15 16 17 18 19 20 21 22 23 24 25 26 27 28 29 30 31 32 33
000
FTUS41 KOKX 051100 RRA
TAFLGA
TAF
KLGA 051141Z 0512/0612 33012KT 1 1/2SM -SN BR SCT008 OVC015
     FM051230 35011G19KT 1/2SM SN FZFG OVC005
      TEMPO 0513/0517 1/4SM +SN VV003
     FM051700 35012G17KT 1SM -SN BR BKN008 OVC015
     FM052100 34012KT 2SM -SN BR BKN020 OVC050
     FM060000 33011KT P6SM SCT020 BKN050
     FM060800 36009KT P6SM FEW050=

USA.gov is the U.S. government's official web portal to all federal, state and local government web resources and services.